Guffey, Colorado
Current Conditions -  °F | °C
As of 3:51 PM on Monday 24 Nov 2014 (Local Time) from K4BM Reporting Station
Overcast Overcast  
Wind Chill: -7°   Ceiling: 7000
Heat Index: 10°   Visibility: 7mi
Dew Point:   Wind: 16mph
Humidity: 67%   Direction: 340°NNW
Pressure: 30.02"   Gusts: 29mph
Location:  38.75°N, 105.52°W
Report Text: K4BM 242251Z AUTO 34014G25KT 7SM SCT023 BKN070 OVC100 M12/M17 A3002 RMK AO2
Loading
Personal Weather Stations






























Interactive Weather Map New forecast layout! Learn more

10-Day Weather Forecast

Advertisements
Track Severe Weather on mobile